sensor_id;sensor_type;location;lat;lon;timestamp;temperature;humidity
67354;SHT30;54238;52.278;21.056;2023-09-30T00:01:58;19.58;57.29
67354;SHT30;54238;52.278;21.056;2023-09-30T00:04:26;19.57;57.36
67354;SHT30;54238;52.278;21.056;2023-09-30T00:06:56;19.56;57.35
67354;SHT30;54238;52.278;21.056;2023-09-30T00:09:26;19.56;57.41
67354;SHT30;54238;52.278;21.056;2023-09-30T00:11:58;19.55;57.53
67354;SHT30;54238;52.278;21.056;2023-09-30T00:14:26;19.54;57.53
67354;SHT30;54238;52.278;21.056;2023-09-30T00:16:53;19.55;57.66
67354;SHT30;54238;52.278;21.056;2023-09-30T00:19:22;19.56;57.55
67354;SHT30;54238;52.278;21.056;2023-09-30T00:21:55;19.57;57.59
67354;SHT30;54238;52.278;21.056;2023-09-30T00:24:27;19.56;57.65
67354;SHT30;54238;52.278;21.056;2023-09-30T00:26:57;19.53;57.64
67354;SHT30;54238;52.278;21.056;2023-09-30T00:29:29;19.54;57.64
67354;SHT30;54238;52.278;21.056;2023-09-30T00:31:55;19.53;57.69
67354;SHT30;54238;52.278;21.056;2023-09-30T00:34:25;19.51;57.83
67354;SHT30;54238;52.278;21.056;2023-09-30T00:36:54;19.50;57.90
67354;SHT30;54238;52.278;21.056;2023-09-30T00:39:24;19.50;57.92
67354;SHT30;54238;52.278;21.056;2023-09-30T00:41:53;19.48;57.89
67354;SHT30;54238;52.278;21.056;2023-09-30T00:44:30;19.45;58.00
67354;SHT30;54238;52.278;21.056;2023-09-30T00:47:00;19.42;58.02
67354;SHT30;54238;52.278;21.056;2023-09-30T00:49:31;19.41;58.12
67354;SHT30;54238;52.278;21.056;2023-09-30T00:52:07;19.39;58.18
67354;SHT30;54238;52.278;21.056;2023-09-30T00:54:34;19.38;58.21
67354;SHT30;54238;52.278;21.056;2023-09-30T00:57:04;19.37;58.30
67354;SHT30;54238;52.278;21.056;2023-09-30T00:59:39;19.35;58.39
67354;SHT30;54238;52.278;21.056;2023-09-30T01:02:14;19.34;58.41
67354;SHT30;54238;52.278;21.056;2023-09-30T01:04:41;19.33;58.41
67354;SHT30;54238;52.278;21.056;2023-09-30T01:07:11;19.33;58.43
67354;SHT30;54238;52.278;21.056;2023-09-30T01:09:43;19.32;58.48
67354;SHT30;54238;52.278;21.056;2023-09-30T01:12:10;19.32;58.40
67354;SHT30;54238;52.278;21.056;2023-09-30T01:14:40;19.29;58.54
67354;SHT30;54238;52.278;21.056;2023-09-30T01:17:09;19.26;58.60
67354;SHT30;54238;52.278;21.056;2023-09-30T01:19:44;19.26;58.60
67354;SHT30;54238;52.278;21.056;2023-09-30T01:22:12;19.25;58.65
67354;SHT30;54238;52.278;21.056;2023-09-30T01:24:43;19.26;58.67
67354;SHT30;54238;52.278;21.056;2023-09-30T01:27:10;19.26;58.66
67354;SHT30;54238;52.278;21.056;2023-09-30T01:29:39;19.27;58.59
67354;SHT30;54238;52.278;21.056;2023-09-30T01:32:08;19.30;58.60
67354;SHT30;54238;52.278;21.056;2023-09-30T01:34:37;19.31;58.62
67354;SHT30;54238;52.278;21.056;2023-09-30T01:37:04;19.29;58.68
67354;SHT30;54238;52.278;21.056;2023-09-30T01:39:36;19.32;58.76
67354;SHT30;54238;52.278;21.056;2023-09-30T01:42:05;19.32;58.80
67354;SHT30;54238;52.278;21.056;2023-09-30T01:44:35;19.33;58.86
67354;SHT30;54238;52.278;21.056;2023-09-30T01:47:02;19.32;58.94
67354;SHT30;54238;52.278;21.056;2023-09-30T01:49:32;19.32;58.98
67354;SHT30;54238;52.278;21.056;2023-09-30T01:52:03;19.32;59.05
67354;SHT30;54238;52.278;21.056;2023-09-30T01:54:33;19.30;59.14
67354;SHT30;54238;52.278;21.056;2023-09-30T01:57:00;19.29;59.19
67354;SHT30;54238;52.278;21.056;2023-09-30T01:59:27;19.27;59.32
67354;SHT30;54238;52.278;21.056;2023-09-30T02:01:57;19.22;59.54
67354;SHT30;54238;52.278;21.056;2023-09-30T02:04:24;19.18;59.69
67354;SHT30;54238;52.278;21.056;2023-09-30T02:06:51;19.18;59.79
67354;SHT30;54238;52.278;21.056;2023-09-30T02:09:17;19.12;59.89
67354;SHT30;54238;52.278;21.056;2023-09-30T02:11:44;19.08;60.01
67354;SHT30;54238;52.278;21.056;2023-09-30T02:14:11;19.09;60.08
67354;SHT30;54238;52.278;21.056;2023-09-30T02:16:43;19.09;60.12
67354;SHT30;54238;52.278;21.056;2023-09-30T02:19:10;19.07;60.12
67354;SHT30;54238;52.278;21.056;2023-09-30T02:21:46;19.04;60.29
67354;SHT30;54238;52.278;21.056;2023-09-30T02:24:16;19.03;60.32
67354;SHT30;54238;52.278;21.056;2023-09-30T02:26:51;19.03;60.27
67354;SHT30;54238;52.278;21.056;2023-09-30T02:29:20;19.01;60.41
67354;SHT30;54238;52.278;21.056;2023-09-30T02:31:49;19.00;60.44
67354;SHT30;54238;52.278;21.056;2023-09-30T02:34:21;18.98;60.57
67354;SHT30;54238;52.278;21.056;2023-09-30T02:36:53;18.96;60.50
67354;SHT30;54238;52.278;21.056;2023-09-30T02:39:22;18.94;60.61
67354;SHT30;54238;52.278;21.056;2023-09-30T02:41:58;18.91;60.63
67354;SHT30;54238;52.278;21.056;2023-09-30T02:44:26;18.89;60.70
67354;SHT30;54238;52.278;21.056;2023-09-30T02:46:53;18.87;60.75
67354;SHT30;54238;52.278;21.056;2023-09-30T02:49:25;18.88;60.79
67354;SHT30;54238;52.278;21.056;2023-09-30T02:51:52;18.86;60.74
67354;SHT30;54238;52.278;21.056;2023-09-30T02:54:21;18.85;60.80
67354;SHT30;54238;52.278;21.056;2023-09-30T02:56:51;18.84;60.80
67354;SHT30;54238;52.278;21.056;2023-09-30T02:59:21;18.85;60.82
67354;SHT30;54238;52.278;21.056;2023-09-30T03:01:50;18.87;60.84
67354;SHT30;54238;52.278;21.056;2023-09-30T03:04:18;18.86;60.83
67354;SHT30;54238;52.278;21.056;2023-09-30T03:06:55;18.87;60.80
67354;SHT30;54238;52.278;21.056;2023-09-30T03:09:24;18.88;60.75
67354;SHT30;54238;52.278;21.056;2023-09-30T03:11:54;18.91;60.76
67354;SHT30;54238;52.278;21.056;2023-09-30T03:14:26;18.92;60.80
67354;SHT30;54238;52.278;21.056;2023-09-30T03:16:58;18.93;60.77
67354;SHT30;54238;52.278;21.056;2023-09-30T03:19:25;18.91;60.81
67354;SHT30;54238;52.278;21.056;2023-09-30T03:21:53;18.89;60.83
67354;SHT30;54238;52.278;21.056;2023-09-30T03:24:20;18.91;60.84
67354;SHT30;54238;52.278;21.056;2023-09-30T03:26:49;18.91;60.85
67354;SHT30;54238;52.278;21.056;2023-09-30T03:29:18;18.91;60.90
67354;SHT30;54238;52.278;21.056;2023-09-30T03:31:45;18.91;60.93
67354;SHT30;54238;52.278;21.056;2023-09-30T03:34:15;18.92;60.93
67354;SHT30;54238;52.278;21.056;2023-09-30T03:36:43;18.87;61.08
67354;SHT30;54238;52.278;21.056;2023-09-30T03:39:11;18.85;61.21
67354;SHT30;54238;52.278;21.056;2023-09-30T03:41:42;18.84;61.27
67354;SHT30;54238;52.278;21.056;2023-09-30T03:44:13;18.81;61.42
67354;SHT30;54238;52.278;21.056;2023-09-30T03:46:43;18.78;61.60
67354;SHT30;54238;52.278;21.056;2023-09-30T03:49:14;18.75;61.70
67354;SHT30;54238;52.278;21.056;2023-09-30T03:51:44;18.76;61.72
67354;SHT30;54238;52.278;21.056;2023-09-30T03:54:19;18.75;61.72
67354;SHT30;54238;52.278;21.056;2023-09-30T03:56:47;18.77;61.85
67354;SHT30;54238;52.278;21.056;2023-09-30T03:59:17;18.76;62.11
67354;SHT30;54238;52.278;21.056;2023-09-30T04:01:45;18.76;62.26
67354;SHT30;54238;52.278;21.056;2023-09-30T04:04:13;18.72;62.32
67354;SHT30;54238;52.278;21.056;2023-09-30T04:06:41;18.67;62.37
67354;SHT30;54238;52.278;21.056;2023-09-30T04:09:10;18.64;62.54
67354;SHT30;54238;52.278;21.056;2023-09-30T04:11:40;18.62;62.81
67354;SHT30;54238;52.278;21.056;2023-09-30T04:14:09;18.58;62.87
67354;SHT30;54238;52.278;21.056;2023-09-30T04:16:46;18.56;62.96
67354;SHT30;54238;52.278;21.056;2023-09-30T04:19:17;18.54;63.04
67354;SHT30;54238;52.278;21.056;2023-09-30T04:21:52;18.52;62.97
67354;SHT30;54238;52.278;21.056;2023-09-30T04:24:21;18.52;63.09
67354;SHT30;54238;52.278;21.056;2023-09-30T04:26:48;18.55;63.00
67354;SHT30;54238;52.278;21.056;2023-09-30T04:29:25;18.54;63.08
67354;SHT30;54238;52.278;21.056;2023-09-30T04:31:58;18.56;63.01
67354;SHT30;54238;52.278;21.056;2023-09-30T04:34:26;18.57;63.08
67354;SHT30;54238;52.278;21.056;2023-09-30T04:36:58;18.59;63.13
67354;SHT30;54238;52.278;21.056;2023-09-30T04:39:33;18.62;62.99
67354;SHT30;54238;52.278;21.056;2023-09-30T04:42:06;18.66;62.91
67354;SHT30;54238;52.278;21.056;2023-09-30T04:44:37;18.70;62.73
67354;SHT30;54238;52.278;21.056;2023-09-30T04:47:08;18.73;62.69
67354;SHT30;54238;52.278;21.056;2023-09-30T04:49:35;18.76;62.56
67354;SHT30;54238;52.278;21.056;2023-09-30T04:52:05;18.77;62.52
67354;SHT30;54238;52.278;21.056;2023-09-30T04:54:35;18.80;62.31
67354;SHT30;54238;52.278;21.056;2023-09-30T04:57:04;18.84;62.18
67354;SHT30;54238;52.278;21.056;2023-09-30T04:59:32;18.90;62.07
67354;SHT30;54238;52.278;21.056;2023-09-30T05:02:03;18.96;61.75
67354;SHT30;54238;52.278;21.056;2023-09-30T05:04:38;19.02;61.60
67354;SHT30;54238;52.278;21.056;2023-09-30T05:07:10;19.09;61.42
67354;SHT30;54238;52.278;21.056;2023-09-30T05:09:40;19.14;61.27
67354;SHT30;54238;52.278;21.056;2023-09-30T05:12:10;19.20;61.11
67354;SHT30;54238;52.278;21.056;2023-09-30T05:14:42;19.26;60.89
67354;SHT30;54238;52.278;21.056;2023-09-30T05:17:10;19.30;60.69
67354;SHT30;54238;52.278;21.056;2023-09-30T05:19:38;19.35;60.63
67354;SHT30;54238;52.278;21.056;2023-09-30T05:22:15;19.37;60.65
67354;SHT30;54238;52.278;21.056;2023-09-30T05:24:50;19.36;61.11
67354;SHT30;54238;52.278;21.056;2023-09-30T05:27:22;19.33;61.27
67354;SHT30;54238;52.278;21.056;2023-09-30T05:29:51;19.32;61.22
67354;SHT30;54238;52.278;21.056;2023-09-30T05:32:19;19.32;61.26
67354;SHT30;54238;52.278;21.056;2023-09-30T05:34:51;19.33;61.17
67354;SHT30;54238;52.278;21.056;2023-09-30T05:37:22;19.32;61.20
67354;SHT30;54238;52.278;21.056;2023-09-30T05:39:54;19.31;61.35
67354;SHT30;54238;52.278;21.056;2023-09-30T05:42:24;19.29;61.33
67354;SHT30;54238;52.278;21.056;2023-09-30T05:44:51;19.26;61.30
67354;SHT30;54238;52.278;21.056;2023-09-30T05:47:22;19.26;61.40
67354;SHT30;54238;52.278;21.056;2023-09-30T05:49:52;19.24;61.53
67354;SHT30;54238;52.278;21.056;2023-09-30T05:52:24;19.23;61.36
67354;SHT30;54238;52.278;21.056;2023-09-30T05:54:56;19.26;61.41
67354;SHT30;54238;52.278;21.056;2023-09-30T05:57:27;19.27;61.36
67354;SHT30;54238;52.278;21.056;2023-09-30T05:59:57;19.30;61.24
67354;SHT30;54238;52.278;21.056;2023-09-30T06:02:30;19.35;61.26
67354;SHT30;54238;52.278;21.056;2023-09-30T06:05:00;19.36;61.44
67354;SHT30;54238;52.278;21.056;2023-09-30T06:07:27;19.37;61.61
67354;SHT30;54238;52.278;21.056;2023-09-30T06:09:55;19.37;61.82
67354;SHT30;54238;52.278;21.056;2023-09-30T06:12:22;19.36;62.04
67354;SHT30;54238;52.278;21.056;2023-09-30T06:14:51;19.37;62.48
67354;SHT30;54238;52.278;21.056;2023-09-30T06:17:21;19.36;62.77
67354;SHT30;54238;52.278;21.056;2023-09-30T06:19:50;19.35;63.15
67354;SHT30;54238;52.278;21.056;2023-09-30T06:22:19;19.34;63.33
67354;SHT30;54238;52.278;21.056;2023-09-30T06:24:50;19.36;63.53
67354;SHT30;54238;52.278;21.056;2023-09-30T06:27:17;19.35;64.02
67354;SHT30;54238;52.278;21.056;2023-09-30T06:29:47;19.32;64.61
67354;SHT30;54238;52.278;21.056;2023-09-30T06:32:15;19.30;65.20
67354;SHT30;54238;52.278;21.056;2023-09-30T06:34:50;19.25;65.56
67354;SHT30;54238;52.278;21.056;2023-09-30T06:37:27;19.23;66.18
67354;SHT30;54238;52.278;21.056;2023-09-30T06:39:57;19.21;66.55
67354;SHT30;54238;52.278;21.056;2023-09-30T06:42:29;19.18;67.11
67354;SHT30;54238;52.278;21.056;2023-09-30T06:44:56;19.15;67.46
67354;SHT30;54238;52.278;21.056;2023-09-30T06:47:26;19.12;67.84
67354;SHT30;54238;52.278;21.056;2023-09-30T06:50:00;19.09;68.16
67354;SHT30;54238;52.278;21.056;2023-09-30T06:52:37;19.05;68.91
67354;SHT30;54238;52.278;21.056;2023-09-30T06:55:09;19.01;69.32
67354;SHT30;54238;52.278;21.056;2023-09-30T06:57:48;18.96;69.94
67354;SHT30;54238;52.278;21.056;2023-09-30T07:00:18;18.92;70.07
67354;SHT30;54238;52.278;21.056;2023-09-30T07:02:48;18.90;70.24
67354;SHT30;54238;52.278;21.056;2023-09-30T07:05:18;18.88;70.60
67354;SHT30;54238;52.278;21.056;2023-09-30T07:07:51;18.89;70.84
67354;SHT30;54238;52.278;21.056;2023-09-30T07:10:21;18.90;71.06
67354;SHT30;54238;52.278;21.056;2023-09-30T07:12:48;18.90;71.46
67354;SHT30;54238;52.278;21.056;2023-09-30T07:15:17;18.90;71.69
67354;SHT30;54238;52.278;21.056;2023-09-30T07:17:45;18.88;71.78
67354;SHT30;54238;52.278;21.056;2023-09-30T07:20:14;18.88;71.74
67354;SHT30;54238;52.278;21.056;2023-09-30T07:22:42;18.89;71.69
67354;SHT30;54238;52.278;21.056;2023-09-30T07:25:11;18.89;72.01
67354;SHT30;54238;52.278;21.056;2023-09-30T07:27:42;18.88;71.99
67354;SHT30;54238;52.278;21.056;2023-09-30T07:30:15;18.88;71.97
67354;SHT30;54238;52.278;21.056;2023-09-30T07:32:47;18.88;72.18
67354;SHT30;54238;52.278;21.056;2023-09-30T07:35:14;18.90;72.15
67354;SHT30;54238;52.278;21.056;2023-09-30T07:37:42;18.90;72.39
67354;SHT30;54238;52.278;21.056;2023-09-30T07:40:10;18.90;72.86
67354;SHT30;54238;52.278;21.056;2023-09-30T07:42:41;18.86;73.59
67354;SHT30;54238;52.278;21.056;2023-09-30T07:45:12;18.82;73.85
67354;SHT30;54238;52.278;21.056;2023-09-30T07:47:46;18.78;74.19
67354;SHT30;54238;52.278;21.056;2023-09-30T07:50:13;18.76;74.41
67354;SHT30;54238;52.278;21.056;2023-09-30T07:52:46;18.77;74.50
67354;SHT30;54238;52.278;21.056;2023-09-30T07:55:15;18.81;74.61
67354;SHT30;54238;52.278;21.056;2023-09-30T07:57:48;18.83;74.72
67354;SHT30;54238;52.278;21.056;2023-09-30T08:00:17;18.89;74.62
67354;SHT30;54238;52.278;21.056;2023-09-30T08:02:48;18.96;74.70
67354;SHT30;54238;52.278;21.056;2023-09-30T08:05:18;19.03;74.54
67354;SHT30;54238;52.278;21.056;2023-09-30T08:07:53;19.12;74.40
67354;SHT30;54238;52.278;21.056;2023-09-30T08:10:22;19.16;74.28
67354;SHT30;54238;52.278;21.056;2023-09-30T08:12:57;19.25;74.11
67354;SHT30;54238;52.278;21.056;2023-09-30T08:15:34;19.33;74.02
67354;SHT30;54238;52.278;21.056;2023-09-30T08:18:06;19.40;74.01
67354;SHT30;54238;52.278;21.056;2023-09-30T08:20:35;19.42;74.16
67354;SHT30;54238;52.278;21.056;2023-09-30T08:23:06;19.45;74.00
67354;SHT30;54238;52.278;21.056;2023-09-30T08:25:33;19.45;74.00
67354;SHT30;54238;52.278;21.056;2023-09-30T08:28:05;19.45;74.18
67354;SHT30;54238;52.278;21.056;2023-09-30T08:30:32;19.46;74.04
67354;SHT30;54238;52.278;21.056;2023-09-30T08:33:04;19.47;74.17
67354;SHT30;54238;52.278;21.056;2023-09-30T08:35:36;19.46;74.20
67354;SHT30;54238;52.278;21.056;2023-09-30T08:38:07;19.46;74.29
67354;SHT30;54238;52.278;21.056;2023-09-30T08:40:40;19.48;74.35
67354;SHT30;54238;52.278;21.056;2023-09-30T08:43:11;19.51;74.25
67354;SHT30;54238;52.278;21.056;2023-09-30T08:45:43;19.57;74.17
67354;SHT30;54238;52.278;21.056;2023-09-30T08:48:19;19.63;74.13
67354;SHT30;54238;52.278;21.056;2023-09-30T08:50:54;19.67;74.10
67354;SHT30;54238;52.278;21.056;2023-09-30T08:53:27;19.69;74.11
67354;SHT30;54238;52.278;21.056;2023-09-30T08:56:01;19.69;74.30
67354;SHT30;54238;52.278;21.056;2023-09-30T08:58:37;19.67;74.36
67354;SHT30;54238;52.278;21.056;2023-09-30T09:01:05;19.64;74.53
67354;SHT30;54238;52.278;21.056;2023-09-30T09:03:37;19.58;74.86
67354;SHT30;54238;52.278;21.056;2023-09-30T09:06:07;19.56;74.71
67354;SHT30;54238;52.278;21.056;2023-09-30T09:08:34;19.54;74.85
67354;SHT30;54238;52.278;21.056;2023-09-30T09:11:10;19.53;74.98
67354;SHT30;54238;52.278;21.056;2023-09-30T09:16:23;19.51;75.34
67354;SHT30;54238;52.278;21.056;2023-09-30T09:18:53;19.50;75.37
67354;SHT30;54238;52.278;21.056;2023-09-30T09:21:23;19.49;75.50
67354;SHT30;54238;52.278;21.056;2023-09-30T09:23:53;19.48;75.51
67354;SHT30;54238;52.278;21.056;2023-09-30T09:26:30;19.44;75.99
67354;SHT30;54238;52.278;21.056;2023-09-30T09:29:05;19.40;76.33
67354;SHT30;54238;52.278;21.056;2023-09-30T09:31:35;19.35;76.35
67354;SHT30;54238;52.278;21.056;2023-09-30T09:34:13;19.32;76.69
67354;SHT30;54238;52.278;21.056;2023-09-30T09:36:43;19.30;76.71
67354;SHT30;54238;52.278;21.056;2023-09-30T09:39:16;19.28;76.82
67354;SHT30;54238;52.278;21.056;2023-09-30T09:41:59;19.27;76.82
67354;SHT30;54238;52.278;21.056;2023-09-30T09:44:30;19.29;76.80
67354;SHT30;54238;52.278;21.056;2023-09-30T09:46:59;19.31;76.86
67354;SHT30;54238;52.278;21.056;2023-09-30T09:49:31;19.32;77.14
67354;SHT30;54238;52.278;21.056;2023-09-30T09:52:01;19.30;77.13
67354;SHT30;54238;52.278;21.056;2023-09-30T09:54:30;19.30;77.26
67354;SHT30;54238;52.278;21.056;2023-09-30T09:57:05;19.30;77.27
67354;SHT30;54238;52.278;21.056;2023-09-30T09:59:43;19.29;77.44
67354;SHT30;54238;52.278;21.056;2023-09-30T10:02:16;19.26;77.80
67354;SHT30;54238;52.278;21.056;2023-09-30T10:04:50;19.23;78.08
67354;SHT30;54238;52.278;21.056;2023-09-30T10:07:24;19.18;78.57
67354;SHT30;54238;52.278;21.056;2023-09-30T10:09:56;19.13;78.65
67354;SHT30;54238;52.278;21.056;2023-09-30T10:12:37;19.11;78.84
67354;SHT30;54238;52.278;21.056;2023-09-30T10:17:58;19.11;78.98
67354;SHT30;54238;52.278;21.056;2023-09-30T10:20:34;19.09;79.27
67354;SHT30;54238;52.278;21.056;2023-09-30T10:25:46;19.05;79.38
67354;SHT30;54238;52.278;21.056;2023-09-30T10:34:32;18.98;79.04
67354;SHT30;54238;52.278;21.056;2023-09-30T10:36:40;18.94;78.70
67354;SHT30;54238;52.278;21.056;2023-09-30T10:39:11;18.87;78.65
67354;SHT30;54238;52.278;21.056;2023-09-30T10:42:04;18.83;78.49
67354;SHT30;54238;52.278;21.056;2023-09-30T10:44:32;18.78;78.43
67354;SHT30;54238;52.278;21.056;2023-09-30T10:47:35;18.74;78.32
67354;SHT30;54238;52.278;21.056;2023-09-30T10:49:57;18.70;77.97
67354;SHT30;54238;52.278;21.056;2023-09-30T10:52:24;18.67;77.30
67354;SHT30;54238;52.278;21.056;2023-09-30T10:54:53;18.61;76.27
67354;SHT30;54238;52.278;21.056;2023-09-30T10:57:27;18.55;75.95
67354;SHT30;54238;52.278;21.056;2023-09-30T11:00:12;18.48;75.45
67354;SHT30;54238;52.278;21.056;2023-09-30T11:02:50;18.43;74.83
67354;SHT30;54238;52.278;21.056;2023-09-30T11:05:19;18.46;74.87
67354;SHT30;54238;52.278;21.056;2023-09-30T11:07:52;18.51;74.73
67354;SHT30;54238;52.278;21.056;2023-09-30T11:10:25;18.58;74.39
67354;SHT30;54238;52.278;21.056;2023-09-30T11:12:58;18.63;74.38
67354;SHT30;54238;52.278;21.056;2023-09-30T11:15:30;18.67;74.13
67354;SHT30;54238;52.278;21.056;2023-09-30T11:18:12;18.65;73.82
67354;SHT30;54238;52.278;21.056;2023-09-30T11:20:46;18.63;74.05
67354;SHT30;54238;52.278;21.056;2023-09-30T11:23:13;18.61;73.97
67354;SHT30;54238;52.278;21.056;2023-09-30T11:25:48;18.59;73.98
67354;SHT30;54238;52.278;21.056;2023-09-30T11:28:18;18.56;74.02
67354;SHT30;54238;52.278;21.056;2023-09-30T11:30:58;18.55;74.09
67354;SHT30;54238;52.278;21.056;2023-09-30T11:33:55;18.50;74.57
67354;SHT30;54238;52.278;21.056;2023-09-30T11:36:24;18.43;74.93
67354;SHT30;54238;52.278;21.056;2023-09-30T11:38:54;18.39;75.27
67354;SHT30;54238;52.278;21.056;2023-09-30T11:41:33;18.38;75.12
67354;SHT30;54238;52.278;21.056;2023-09-30T11:44:12;18.36;74.81
67354;SHT30;54238;52.278;21.056;2023-09-30T11:52:00;18.44;73.95
67354;SHT30;54238;52.278;21.056;2023-09-30T11:54:36;18.43;73.67
67354;SHT30;54238;52.278;21.056;2023-09-30T11:57:16;18.41;73.60
67354;SHT30;54238;52.278;21.056;2023-09-30T11:59:50;18.40;73.71
67354;SHT30;54238;52.278;21.056;2023-09-30T12:02:20;18.44;73.70
67354;SHT30;54238;52.278;21.056;2023-09-30T12:04:49;18.46;73.55
67354;SHT30;54238;52.278;21.056;2023-09-30T12:07:19;18.48;73.50
67354;SHT30;54238;52.278;21.056;2023-09-30T12:09:50;18.51;73.53
67354;SHT30;54238;52.278;21.056;2023-09-30T12:12:18;18.55;73.21
67354;SHT30;54238;52.278;21.056;2023-09-30T12:14:47;18.55;72.16
67354;SHT30;54238;52.278;21.056;2023-09-30T12:17:17;18.56;71.94
67354;SHT30;54238;52.278;21.056;2023-09-30T12:19:49;18.59;71.18
67354;SHT30;54238;52.278;21.056;2023-09-30T12:22:21;18.66;71.17
67354;SHT30;54238;52.278;21.056;2023-09-30T12:24:54;18.71;70.59
67354;SHT30;54238;52.278;21.056;2023-09-30T12:27:23;18.75;70.37
67354;SHT30;54238;52.278;21.056;2023-09-30T12:29:53;18.85;70.15
67354;SHT30;54238;52.278;21.056;2023-09-30T12:32:24;19.04;70.05
67354;SHT30;54238;52.278;21.056;2023-09-30T12:35:00;19.22;68.71
67354;SHT30;54238;52.278;21.056;2023-09-30T12:37:32;19.47;68.57
67354;SHT30;54238;52.278;21.056;2023-09-30T12:40:01;19.84;68.01
67354;SHT30;54238;52.278;21.056;2023-09-30T12:42:29;20.28;67.44
67354;SHT30;54238;52.278;21.056;2023-09-30T12:45:01;20.60;66.21
67354;SHT30;54238;52.278;21.056;2023-09-30T12:47:30;20.91;64.58
67354;SHT30;54238;52.278;21.056;2023-09-30T12:50:02;21.55;62.82
67354;SHT30;54238;52.278;21.056;2023-09-30T12:52:31;22.35;59.69
67354;SHT30;54238;52.278;21.056;2023-09-30T12:54:59;22.93;57.99
67354;SHT30;54238;52.278;21.056;2023-09-30T12:57:32;23.27;56.02
67354;SHT30;54238;52.278;21.056;2023-09-30T12:59:59;23.84;54.16
67354;SHT30;54238;52.278;21.056;2023-09-30T13:02:30;24.40;51.12
67354;SHT30;54238;52.278;21.056;2023-09-30T13:04:57;24.71;49.75
67354;SHT30;54238;52.278;21.056;2023-09-30T13:07:25;24.90;50.05
67354;SHT30;54238;52.278;21.056;2023-09-30T13:09:55;24.82;49.80
67354;SHT30;54238;52.278;21.056;2023-09-30T13:12:23;24.52;49.83
67354;SHT30;54238;52.278;21.056;2023-09-30T13:14:56;24.36;49.47
67354;SHT30;54238;52.278;21.056;2023-09-30T13:17:25;24.63;49.34
67354;SHT30;54238;52.278;21.056;2023-09-30T13:19:57;24.88;49.02
67354;SHT30;54238;52.278;21.056;2023-09-30T13:22:31;24.76;49.33
67354;SHT30;54238;52.278;21.056;2023-09-30T13:25:05;24.54;49.25
67354;SHT30;54238;52.278;21.056;2023-09-30T13:27:41;24.42;48.74
67354;SHT30;54238;52.278;21.056;2023-09-30T13:30:15;24.30;49.04
67354;SHT30;54238;52.278;21.056;2023-09-30T13:32:42;24.10;49.07
67354;SHT30;54238;52.278;21.056;2023-09-30T13:35:12;24.59;48.63
67354;SHT30;54238;52.278;21.056;2023-09-30T13:37:42;25.36;46.79
67354;SHT30;54238;52.278;21.056;2023-09-30T13:40:12;25.86;44.76
67354;SHT30;54238;52.278;21.056;2023-09-30T13:42:42;26.31;43.26
67354;SHT30;54238;52.278;21.056;2023-09-30T13:45:10;26.67;41.10
67354;SHT30;54238;52.278;21.056;2023-09-30T13:47:40;27.13;40.31
67354;SHT30;54238;52.278;21.056;2023-09-30T13:50:13;27.05;39.25
67354;SHT30;54238;52.278;21.056;2023-09-30T13:52:47;26.82;38.92
67354;SHT30;54238;52.278;21.056;2023-09-30T13:55:14;26.72;37.71
67354;SHT30;54238;52.278;21.056;2023-09-30T13:57:47;26.60;37.34
67354;SHT30;54238;52.278;21.056;2023-09-30T14:00:18;26.81;37.74
67354;SHT30;54238;52.278;21.056;2023-09-30T14:02:45;27.11;38.06
67354;SHT30;54238;52.278;21.056;2023-09-30T14:05:15;27.45;37.56
67354;SHT30;54238;52.278;21.056;2023-09-30T14:07:43;27.68;35.10
67354;SHT30;54238;52.278;21.056;2023-09-30T14:10:13;27.57;33.80
67354;SHT30;54238;52.278;21.056;2023-09-30T14:12:45;27.14;33.85
67354;SHT30;54238;52.278;21.056;2023-09-30T14:15:14;26.61;34.09
67354;SHT30;54238;52.278;21.056;2023-09-30T14:17:47;26.57;34.34
67354;SHT30;54238;52.278;21.056;2023-09-30T14:20:18;26.95;34.90
67354;SHT30;54238;52.278;21.056;2023-09-30T14:22:51;27.13;33.41
67354;SHT30;54238;52.278;21.056;2023-09-30T14:25:19;27.29;34.33
67354;SHT30;54238;52.278;21.056;2023-09-30T14:27:49;27.60;34.16
67354;SHT30;54238;52.278;21.056;2023-09-30T14:30:21;27.57;33.65
67354;SHT30;54238;52.278;21.056;2023-09-30T14:32:56;27.35;34.27
67354;SHT30;54238;52.278;21.056;2023-09-30T14:35:25;26.81;33.99
67354;SHT30;54238;52.278;21.056;2023-09-30T14:37:55;26.08;34.62
67354;SHT30;54238;52.278;21.056;2023-09-30T14:40:23;25.38;35.87
67354;SHT30;54238;52.278;21.056;2023-09-30T14:42:51;24.83;36.47
67354;SHT30;54238;52.278;21.056;2023-09-30T14:45:20;24.32;37.03
67354;SHT30;54238;52.278;21.056;2023-09-30T14:47:51;23.86;37.95
67354;SHT30;54238;52.278;21.056;2023-09-30T14:50:25;23.48;38.27
67354;SHT30;54238;52.278;21.056;2023-09-30T14:52:54;23.13;38.81
67354;SHT30;54238;52.278;21.056;2023-09-30T14:55:21;22.76;39.27
67354;SHT30;54238;52.278;21.056;2023-09-30T14:57:50;22.45;40.00
67354;SHT30;54238;52.278;21.056;2023-09-30T15:00:20;22.22;40.71
67354;SHT30;54238;52.278;21.056;2023-09-30T15:02:54;22.04;41.09
67354;SHT30;54238;52.278;21.056;2023-09-30T15:05:23;21.84;41.29
67354;SHT30;54238;52.278;21.056;2023-09-30T15:07:51;21.62;41.71
67354;SHT30;54238;52.278;21.056;2023-09-30T15:10:18;21.49;42.24
67354;SHT30;54238;52.278;21.056;2023-09-30T15:12:48;21.39;43.09
67354;SHT30;54238;52.278;21.056;2023-09-30T15:15:17;21.29;42.97
67354;SHT30;54238;52.278;21.056;2023-09-30T15:17:46;21.13;42.82
67354;SHT30;54238;52.278;21.056;2023-09-30T15:20:19;20.95;43.11
67354;SHT30;54238;52.278;21.056;2023-09-30T15:22:47;20.81;43.40
67354;SHT30;54238;52.278;21.056;2023-09-30T15:25:17;20.70;43.64
67354;SHT30;54238;52.278;21.056;2023-09-30T15:27:47;20.58;43.96
67354;SHT30;54238;52.278;21.056;2023-09-30T15:30:16;20.66;44.25
67354;SHT30;54238;52.278;21.056;2023-09-30T15:32:44;20.83;44.02
67354;SHT30;54238;52.278;21.056;2023-09-30T15:35:14;20.74;44.09
67354;SHT30;54238;52.278;21.056;2023-09-30T15:37:44;20.62;44.33
67354;SHT30;54238;52.278;21.056;2023-09-30T15:40:16;20.58;44.77
67354;SHT30;54238;52.278;21.056;2023-09-30T15:42:48;20.56;44.93
67354;SHT30;54238;52.278;21.056;2023-09-30T15:45:15;20.59;45.20
67354;SHT30;54238;52.278;21.056;2023-09-30T15:47:45;20.60;45.29
67354;SHT30;54238;52.278;21.056;2023-09-30T15:50:15;20.57;45.09
67354;SHT30;54238;52.278;21.056;2023-09-30T15:52:42;20.52;45.36
67354;SHT30;54238;52.278;21.056;2023-09-30T15:55:14;20.46;45.30
67354;SHT30;54238;52.278;21.056;2023-09-30T15:57:44;20.39;45.45